Hiseville, Kentucky
Current Conditions -  °F | °C
As of 9:55 AM on Monday 24 Nov 2014 (Local Time) from KGLW Reporting Station
Broken Clouds Broken Clouds  
Wind Chill: 55°   Ceiling: 4500
Heat Index: 55°   Visibility: 10mi
Dew Point: 43°   Wind: 32mph
Humidity: 64%   Direction: 250°WSW
Pressure: 29.68"   Gusts: 44mph
Location:  37.1°N, 85.81°W
Report Text: KGLW 241555Z AUTO 25028G38KT 10SM SCT038 BKN045 BKN055 13/06 A2968 RMK AO2 T01280061
Loading
Personal Weather Stations






























Interactive Weather Map New forecast layout! Learn more

10-Day Weather Forecast

Advertisements
Track Severe Weather on mobile